| time (UTC) | temp F | wind direction | speed MPH | gust MPH | rain 1hr in | rain 24hr in | rain mn in | humidity % | barometer mb |
| 20260507154552 | 52 | 296 | 19.0 | 29.0 | 0.00 | 0.00 | 0.00 | 49 | 1010.3 |
| 20260507153048 | 50 | 300 | 15.0 | 24.0 | 0.00 | 0.00 | 0.00 | 47 | 1010.3 |
| 20260507151545 | 50 | 298 | 15.0 | 25.0 | 0.00 | 0.00 | 0.00 | 47 | 1010.2 |
| 20260507150043 | 49 | 261 | 14.0 | 25.0 | 0.00 | 0.00 | 0.00 | 42 | 1010.2 |
| 20260507144541 | 51 | 266 | 11.0 | 19.0 | 0.00 | 0.00 | 0.00 | 39 | 1010.6 |
| 20260507143051 | 50 | 320 | 11.0 | 17.0 | 0.00 | 0.00 | 0.00 | 40 | 1010.4 |
| 20260507141551 | 49 | 323 | 10.0 | 14.0 | 0.00 | 0.00 | 0.00 | 41 | 1010.2 |
| 20260507140048 | 46 | 319 | 10.0 | 15.0 | 0.00 | 0.00 | 0.00 | 44 | 1010.1 |
| 20260507134547 | 46 | 321 | 11.0 | 16.0 | 0.00 | 0.00 | 0.00 | 43 | 1010.0 |
| 20260507133043 | 45 | 312 | 9.0 | 15.0 | 0.00 | 0.00 | 0.00 | 44 | 1009.9 |
| 20260507131558 | 45 | 307 | 11.0 | 16.0 | 0.00 | 0.00 | 0.00 | 44 | 1009.8 |
| 20260507130050 | 44 | 331 | 10.0 | 15.0 | 0.00 | 0.00 | 0.00 | 45 | 1009.6 |
| 20260507124547 | 43 | 331 | 9.0 | 14.0 | 0.00 | 0.00 | 0.00 | 45 | 1009.5 |
| 20260507123048 | 43 | 331 | 8.0 | 14.0 | 0.00 | 0.00 | 0.00 | 44 | 1009.3 |
| 20260507121546 | 43 | 325 | 9.0 | 14.0 | 0.00 | 0.00 | 0.00 | 43 | 1009.1 |
| 20260507120044 | 42 | 311 | 10.0 | 15.0 | 0.00 | 0.00 | 0.00 | 44 | 1008.9 |
| 20260507114545 | 42 | 302 | 12.0 | 20.0 | 0.00 | 0.00 | 0.00 | 44 | 1008.9 |
| 20260507113047 | 42 | 349 | 12.0 | 18.0 | 0.00 | 0.00 | 0.00 | 43 | 1008.8 |
| 20260507111540 | 41 | 335 | 11.0 | 17.0 | 0.00 | 0.00 | 0.00 | 41 | 1008.7 |
| 20260507110049 | 41 | 344 | 10.0 | 16.0 | 0.00 | 0.00 | 0.00 | 38 | 1008.7 |
| 20260507104546 | 40 | 337 | 10.0 | 17.0 | 0.00 | 0.00 | 0.00 | 38 | 1008.6 |
| 20260507103041 | 41 | 339 | 11.0 | 16.0 | 0.00 | 0.00 | 0.00 | 36 | 1008.5 |
| 20260507101541 | 41 | 319 | 12.0 | 17.0 | 0.00 | 0.00 | 0.00 | 36 | 1008.4 |
| 20260507100053 | 42 | 319 | 11.0 | 21.0 | 0.00 | 0.00 | 0.00 | 35 | 1008.3 |
| 20260507094548 | 42 | 319 | 11.0 | 18.0 | 0.00 | 0.00 | 0.00 | 35 | 1008.2 |
| 20260507093053 | 42 | 289 | 12.0 | 18.0 | 0.00 | 0.00 | 0.00 | 34 | 1008.3 |
| 20260507091543 | 42 | 282 | 12.0 | 19.0 | 0.00 | 0.00 | 0.00 | 34 | 1008.2 |
| 20260507090044 | 42 | 277 | 10.0 | 15.0 | 0.00 | 0.00 | 0.00 | 34 | 1008.4 |
| 20260507084544 | 42 | 264 | 8.0 | 14.0 | 0.00 | 0.00 | 0.00 | 33 | 1008.3 |
| 20260507083050 | 42 | 271 | 8.0 | 13.0 | 0.00 | 0.00 | 0.00 | 33 | 1008.3 |
| 20260507081547 | 43 | 264 | 10.0 | 17.0 | 0.00 | 0.00 | 0.00 | 32 | 1008.3 |
| 20260507080049 | 41 | 300 | 3.0 | 9.0 | 0.00 | 0.00 | 0.00 | 33 | 1008.5 |
| 20260507074546 | 42 | 309 | 6.0 | 13.0 | 0.00 | 0.00 | 0.00 | 33 | 1008.7 |
| 20260507073046 | 42 | 261 | 7.0 | 11.0 | 0.00 | 0.00 | 0.00 | 33 | 1008.9 |
| 20260507071602 | 43 | 267 | 10.0 | 15.0 | 0.00 | 0.00 | 0.00 | 32 | 1008.9 |
| 20260507070052 | 42 | 249 | 9.0 | 17.0 | 0.00 | 0.00 | 0.00 | 33 | 1009.0 |
| 20260507064550 | 42 | 249 | 10.0 | 12.0 | 0.00 | 0.00 | 0.00 | 32 | 1009.1 |
| 20260507063045 | 41 | 239 | 8.0 | 12.0 | 0.00 | 0.00 | 0.00 | 32 | 1009.4 |
| 20260507061556 | 42 | 237 | 10.0 | 12.0 | 0.00 | 0.00 | 0.00 | 32 | 1009.5 |
| 20260507060050 | 42 | 248 | 8.0 | 10.0 | 0.00 | 0.00 | 0.00 | 33 | 1009.6 |
| 20260507054546 | 42 | 242 | 7.0 | 10.0 | 0.00 | 0.00 | 0.00 | 32 | 1009.6 |
| 20260507053110 | 42 | 232 | 8.0 | 11.0 | 0.00 | 0.00 | 0.00 | 32 | 1010.0 |
| 20260507051544 | 43 | 251 | 9.0 | 12.0 | 0.00 | 0.00 | 0.00 | 31 | 1010.1 |
| 20260507050044 | 43 | 240 | 9.0 | 12.0 | 0.00 | 0.00 | 0.00 | 32 | 1010.0 |
| 20260507044541 | 43 | 254 | 7.0 | 10.0 | 0.00 | 0.00 | 0.00 | 32 | 1010.1 |
| 20260507043045 | 42 | 271 | 5.0 | 8.0 | 0.00 | 0.00 | 0.00 | 32 | 1010.2 |
| 20260507041543 | 43 | 311 | 4.0 | 8.0 | 0.00 | 0.00 | 0.00 | 31 | 1010.2 |
| 20260507040043 | 42 | 313 | 4.0 | 8.0 | 0.00 | 0.00 | 0.00 | 31 | 1010.5 |
| 20260507034541 | 42 | 329 | 5.0 | 10.0 | 0.00 | 0.00 | 0.00 | 31 | 1010.5 |
| 20260507033052 | 42 | 324 | 6.0 | 11.0 | 0.00 | 0.00 | 0.00 | 31 | 1010.8 |
| 20260507031551 | 42 | 327 | 7.0 | 11.0 | 0.00 | 0.00 | 0.00 | 31 | 1010.9 |
| 20260507030042 | 42 | 326 | 7.0 | 10.0 | 0.00 | 0.00 | 0.00 | 31 | 1010.8 |
| 20260507024557 | 42 | 321 | 6.0 | 10.0 | 0.00 | 0.00 | 0.00 | 31 | 1010.9 |
| 20260507023041 | 43 | 294 | 8.0 | 12.0 | 0.00 | 0.00 | 0.00 | 31 | 1010.8 |
| 20260507021550 | 43 | 304 | 7.0 | 11.0 | 0.00 | 0.00 | 0.00 | 30 | 1010.8 |
| 20260507020045 | 43 | 287 | 6.0 | 11.0 | 0.00 | 0.00 | 0.00 | 30 | 1010.7 |
| 20260507014549 | 44 | 292 | 8.0 | 12.0 | 0.00 | 0.00 | 0.00 | 30 | 1010.8 |
| 20260507013050 | 44 | 269 | 8.0 | 14.0 | 0.00 | 0.00 | 0.00 | 29 | 1010.9 |
| 20260507011542 | 44 | 278 | 9.0 | 16.0 | 0.00 | 0.00 | 0.00 | 29 | 1010.9 |
| 20260507010051 | 45 | 264 | 10.0 | 18.0 | 0.00 | 0.00 | 0.00 | 28 | 1010.7 |
| 20260507004546 | 44 | 271 | 7.0 | 20.0 | 0.00 | 0.00 | 0.00 | 30 | 1011.0 |
| 20260507003044 | 44 | 254 | 12.0 | 18.0 | 0.00 | 0.00 | 0.00 | 29 | 1011.2 |
| 20260507001552 | 46 | 247 | 11.0 | 19.0 | 0.00 | 0.00 | 0.00 | 29 | 1011.5 |
| 20260507000051 | 45 | 296 | 13.0 | 24.0 | 0.00 | 0.00 | 0.00 | 28 | 1011.5 |
| 20260506234550 | 45 | 257 | 15.0 | 27.0 | 0.00 | 0.00 | 0.00 | 28 | 1011.6 |
| 20260506233055 | 45 | 252 | 17.0 | 26.0 | 0.00 | 0.00 | 0.00 | 27 | 1011.6 |
| 20260506231548 | 44 | 257 | 15.0 | 22.0 | 0.00 | 0.00 | 0.00 | 28 | 1011.8 |
| 20260506230045 | 45 | 253 | 15.0 | 24.0 | 0.00 | 0.00 | 0.00 | 28 | 1011.7 |
| 20260506224542 | 45 | 288 | 16.0 | 23.0 | 0.00 | 0.00 | 0.00 | 26 | 1011.9 |
| 20260506223040 | 45 | 309 | 15.0 | 26.0 | 0.00 | 0.00 | 0.00 | 29 | 1011.8 |
| 20260506221550 | 44 | 275 | 16.0 | 29.0 | 0.00 | 0.00 | 0.00 | 30 | 1012.2 |
| 20260506220046 | 44 | 273 | 11.0 | 25.0 | 0.00 | 0.00 | 0.00 | 31 | 1012.6 |
| 20260506214555 | 45 | 277 | 10.0 | 23.0 | 0.00 | 0.00 | 0.00 | 30 | 1012.7 |
| 20260506213044 | 43 | 249 | 15.0 | 26.0 | 0.00 | 0.00 | 0.00 | 31 | 1012.9 |
| 20260506211544 | 42 | 247 | 13.0 | 23.0 | 0.00 | 0.00 | 0.00 | 33 | 1013.3 |
| 20260506210041 | 42 | 294 | 13.0 | 21.0 | 0.00 | 0.00 | 0.00 | 34 | 1013.5 |
| 20260506204544 | 41 | 308 | 14.0 | 25.0 | 0.00 | 0.00 | 0.00 | 34 | 1013.7 |
| 20260506203040 | 42 | 250 | 9.0 | 20.0 | 0.00 | 0.00 | 0.00 | 35 | 1013.9 |
| 20260506201549 | 42 | 290 | 11.0 | 22.0 | 0.00 | 0.00 | 0.00 | 35 | 1013.7 |
| 20260506200049 | 41 | 331 | 13.0 | 20.0 | 0.00 | 0.00 | 0.00 | 36 | 1013.6 |
| 20260506194543 | 41 | 288 | 9.0 | 18.0 | 0.00 | 0.00 | 0.00 | 37 | 1013.9 |
| 20260506193040 | 39 | 243 | 10.0 | 27.0 | 0.00 | 0.00 | 0.00 | 37 | 1014.4 |
| 20260506191557 | 39 | 287 | 11.0 | 20.0 | 0.00 | 0.00 | 0.00 | 38 | 1014.5 |
| 20260506190046 | 38 | 244 | 8.0 | 17.0 | 0.00 | 0.00 | 0.00 | 40 | 1014.8 |
| 20260506184551 | 37 | 250 | 12.0 | 24.0 | 0.00 | 0.00 | 0.00 | 41 | 1014.6 |
| 20260506183050 | 37 | 281 | 7.0 | 17.0 | 0.00 | 0.00 | 0.00 | 41 | 1014.9 |
| 20260506181554 | 37 | 294 | 7.0 | 18.0 | 0.00 | 0.00 | 0.00 | 43 | 1015.2 |
| 20260506180058 | 37 | 316 | 10.0 | 20.0 | 0.00 | 0.00 | 0.00 | 43 | 1015.3 |
| 20260506174548 | 36 | 288 | 9.0 | 20.0 | 0.00 | 0.00 | 0.00 | 43 | 1015.5 |
| 20260506173045 | 35 | 290 | 10.0 | 18.0 | 0.00 | 0.00 | 0.00 | 43 | 1015.6 |
| 20260506171554 | 34 | 280 | 10.0 | 22.0 | 0.00 | 0.00 | 0.00 | 47 | 1015.5 |
| 20260506170046 | 34 | 260 | 11.0 | 19.0 | 0.00 | 0.00 | 0.00 | 47 | 1015.5 |
| 20260506164540 | 33 | 281 | 11.0 | 20.0 | 0.00 | 0.00 | 0.00 | 48 | 1015.9 |
| 20260506163053 | 33 | 244 | 9.0 | 19.0 | 0.00 | 0.00 | 0.00 | 50 | 1015.8 |
| 20260506161555 | 31 | 283 | 9.0 | 21.0 | 0.00 | 0.00 | 0.00 | 56 | 1015.8 |
| 20260506160049 | 32 | 290 | 8.0 | 17.0 | 0.00 | 0.00 | 0.00 | 55 | 1015.9 |